Weather at Ladue Ranch Heliport

Public forecast

Using degrees Fahrenheit for public forecast. Weather courtesy of forecast.io.

Closest aviation weather report (METAR) to Ladue Ranch Heliport

Closest report is Rockwall Municipal Airport, 5.8 nm (10.8 km) SE.

(retrieved 0 seconds ago)

Closest aviation forecast (TAF) to Ladue Ranch Heliport

Closest forecast is Dallas Love Field, 19.9 nm (36.8 km) WSW.

2024/07/13 18:22 (retrieved 49 minutes ago)

TAF KDAL 131720Z 1318/1418 18013KT P6SM SCT050